createdAt,value
2018-06-10T00:00:37.513Z,97513.12
2018-06-10T00:03:06.999Z,97530.16
2018-06-10T00:05:36.263Z,97518.16
2018-06-10T00:08:05.472Z,97503.92
2018-06-10T00:10:34.691Z,97505.05
2018-06-10T00:13:03.991Z,97503.19
2018-06-10T00:15:33.311Z,97502.48
2018-06-10T00:18:02.558Z,97497.70
2018-06-10T00:20:31.808Z,97499.05
2018-06-10T00:23:01.043Z,97498.24
2018-06-10T00:25:30.360Z,97492.05
2018-06-10T00:27:59.614Z,97482.95
2018-06-10T00:30:28.903Z,97478.72
2018-06-10T00:32:58.170Z,97478.80
2018-06-10T00:35:27.467Z,97468.94
2018-06-10T00:37:56.731Z,97471.69
2018-06-10T00:40:25.996Z,97466.19
2018-06-10T00:42:55.258Z,97466.99
2018-06-10T00:45:24.480Z,97455.42
2018-06-10T00:47:53.718Z,97456.77
2018-06-10T00:50:22.954Z,97451.19
2018-06-10T00:52:52.218Z,97452.05
2018-06-10T00:55:21.459Z,97449.56
2018-06-10T00:57:50.742Z,97457.46
2018-06-10T01:00:19.972Z,97461.23
2018-06-10T01:02:49.182Z,97467.14
2018-06-10T01:05:18.408Z,97457.38
2018-06-10T01:07:47.648Z,97455.14
2018-06-10T01:10:16.856Z,97451.59
2018-06-10T01:12:46.115Z,97447.75
2018-06-10T01:15:15.374Z,97452.59
2018-06-10T01:17:44.663Z,97448.48
2018-06-10T01:20:13.955Z,97450.92
2018-06-10T01:22:43.270Z,97450.70
2018-06-10T01:25:12.587Z,97453.88
2018-06-10T01:27:41.956Z,97446.12
2018-06-10T01:30:11.280Z,97442.02
2018-06-10T01:32:40.572Z,97443.97
2018-06-10T01:35:09.869Z,97441.95
2018-06-10T01:37:39.155Z,97435.00
2018-06-10T01:40:08.405Z,97431.80
2018-06-10T01:42:37.635Z,97434.55
2018-06-10T01:45:06.868Z,97424.13
2018-06-10T01:47:36.097Z,97426.86
2018-06-10T01:50:05.325Z,97420.67
2018-06-10T01:52:34.542Z,97418.81
2018-06-10T01:55:03.830Z,97426.05
2018-06-10T01:57:33.103Z,97413.43
2018-06-10T02:00:02.367Z,97416.09
2018-06-10T02:02:31.642Z,97410.74
2018-06-10T02:05:00.899Z,97418.07
2018-06-10T02:07:30.211Z,97418.70
2018-06-10T02:09:59.494Z,97419.88
2018-06-10T02:12:28.807Z,97413.41
2018-06-10T02:14:58.055Z,97413.16
2018-06-10T02:17:27.320Z,97420.28
2018-06-10T02:19:56.602Z,97413.62
2018-06-10T02:22:25.828Z,97411.02
2018-06-10T02:24:55.079Z,97415.34
2018-06-10T02:27:24.314Z,97413.25
2018-06-10T02:29:53.550Z,97405.72
2018-06-10T02:32:22.946Z,97402.58
2018-06-10T02:34:52.206Z,97408.75
2018-06-10T02:37:21.445Z,97413.65
2018-06-10T02:39:50.662Z,97414.48
2018-06-10T02:42:19.902Z,97410.96
2018-06-10T02:44:49.149Z,97413.30
2018-06-10T02:47:18.383Z,97417.88
2018-06-10T02:49:47.646Z,97418.38
2018-06-10T02:52:16.901Z,97412.50
2018-06-10T02:54:46.178Z,97415.02
2018-06-10T02:57:15.516Z,97415.81
2018-06-10T02:59:44.809Z,97409.84
2018-06-10T03:02:14.138Z,97410.98
2018-06-10T03:04:43.511Z,97407.49
2018-06-10T03:07:12.913Z,97416.63
2018-06-10T03:09:42.261Z,97412.53
2018-06-10T03:12:11.615Z,97408.50
2018-06-10T03:14:40.979Z,97411.45
2018-06-10T03:17:10.937Z,97414.77
2018-06-10T03:19:40.246Z,97415.62
2018-06-10T03:22:09.481Z,97429.12
2018-06-10T03:24:38.730Z,97436.72
2018-06-10T03:27:07.978Z,97427.67
2018-06-10T03:29:37.001Z,97429.07
2018-06-10T03:32:06.256Z,97427.20
2018-06-10T03:34:35.489Z,97422.74
2018-06-10T03:37:04.851Z,97423.56
2018-06-10T03:39:34.082Z,97423.52
2018-06-10T03:42:03.350Z,97423.75
2018-06-10T03:44:32.611Z,97423.98
2018-06-10T03:47:01.905Z,97430.75
2018-06-10T03:49:31.158Z,97429.56
2018-06-10T03:52:00.419Z,97425.50
2018-06-10T03:54:29.663Z,97422.22
2018-06-10T03:56:58.924Z,97419.73
2018-06-10T03:59:28.204Z,97421.08
2018-06-10T04:01:57.514Z,97422.63
2018-06-10T04:04:26.756Z,97425.52
2018-06-10T04:06:55.774Z,97421.25
2018-06-10T04:09:25.016Z,97428.33
2018-06-10T04:11:54.250Z,97424.20
2018-06-10T04:14:23.482Z,97425.72
2018-06-10T04:16:52.719Z,97426.92
2018-06-10T04:19:21.951Z,97435.65
2018-06-10T04:21:51.216Z,97429.03
2018-06-10T04:24:20.511Z,97430.73
2018-06-10T04:26:49.781Z,97433.08
2018-06-10T04:29:19.038Z,97438.53
2018-06-10T04:31:48.280Z,97439.12
2018-06-10T04:34:17.534Z,97436.88
2018-06-10T04:36:46.798Z,97434.63
2018-06-10T04:39:16.102Z,97430.13
2018-06-10T04:41:45.423Z,97431.95
2018-06-10T04:44:14.773Z,97431.50
2018-06-10T04:46:44.050Z,97429.98
2018-06-10T04:49:13.410Z,97431.61
2018-06-10T04:51:42.813Z,97437.67
2018-06-10T04:54:12.184Z,97436.77
2018-06-10T04:56:41.466Z,97437.43
2018-06-10T04:59:10.748Z,97437.15
2018-06-10T05:01:40.052Z,97438.75
2018-06-10T05:04:09.067Z,97431.84
2018-06-10T05:06:38.322Z,97440.53
2018-06-10T05:09:07.839Z,97433.27
2018-06-10T05:11:37.080Z,97434.63
2018-06-10T05:14:06.362Z,97435.00
2018-06-10T05:16:35.705Z,97430.41
2018-06-10T05:19:05.090Z,97433.45
2018-06-10T05:21:34.500Z,97430.48
2018-06-10T05:24:03.751Z,97426.37
2018-06-10T05:26:33.006Z,97422.76
2018-06-10T05:29:02.298Z,97424.06
2018-06-10T05:31:31.540Z,97428.20
2018-06-10T05:34:00.850Z,97437.19
2018-06-10T05:36:30.122Z,97436.73
2018-06-10T05:38:59.502Z,97436.25
2018-06-10T05:41:28.754Z,97437.36
2018-06-10T05:43:58.014Z,97437.05
2018-06-10T05:46:27.363Z,97437.48
2018-06-10T05:48:56.719Z,97448.18
2018-06-10T05:51:25.991Z,97451.94
2018-06-10T05:53:55.325Z,97454.82
2018-06-10T05:56:24.611Z,97453.70
2018-06-10T05:58:53.843Z,97445.61
2018-06-10T06:01:23.103Z,97453.97
2018-06-10T06:03:52.350Z,97455.98
2018-06-10T06:06:21.617Z,97461.41
2018-06-10T06:08:50.874Z,97459.88
2018-06-10T06:11:21.460Z,97471.22
2018-06-10T06:13:50.708Z,97461.84
2018-06-10T06:16:19.989Z,97473.62
2018-06-10T06:18:49.244Z,97470.95
2018-06-10T06:21:18.564Z,97466.95
2018-06-10T06:23:47.841Z,97473.74
2018-06-10T06:26:17.215Z,97468.64
2018-06-10T06:28:46.500Z,97466.04
2018-06-10T06:31:15.867Z,97462.61
2018-06-10T06:33:45.155Z,97462.42
2018-06-10T06:36:14.261Z,97468.72
2018-06-10T06:38:43.617Z,97464.41
2018-06-10T06:41:12.936Z,97465.40
2018-06-10T06:43:42.240Z,97467.05
2018-06-10T06:46:11.625Z,97477.03
2018-06-10T06:48:40.749Z,97475.34
2018-06-10T06:51:10.040Z,97475.86
2018-06-10T06:53:39.469Z,97472.48
2018-06-10T06:56:08.757Z,97472.20
2018-06-10T06:58:38.043Z,97473.03
2018-06-10T07:01:07.380Z,97471.33
2018-06-10T07:03:36.756Z,97471.20
2018-06-10T07:06:05.987Z,97466.04
2018-06-10T07:08:35.219Z,97461.56
2018-06-10T07:11:04.468Z,97463.76
2018-06-10T07:13:33.751Z,97468.72
2018-06-10T07:16:03.023Z,97473.55
2018-06-10T07:18:32.299Z,97471.37
2018-06-10T07:21:01.620Z,97473.59
2018-06-10T07:23:30.863Z,97471.69
2018-06-10T07:26:00.199Z,97478.34
2018-06-10T07:28:29.509Z,97477.99
2018-06-10T07:30:58.852Z,97475.34
2018-06-10T07:33:28.162Z,97473.52
2018-06-10T07:35:57.475Z,97480.76
2018-06-10T07:38:26.711Z,97475.30
2018-06-10T07:40:55.991Z,97480.54
2018-06-10T07:43:25.214Z,97477.17
2018-06-10T07:45:54.447Z,97475.45
2018-06-10T07:48:23.854Z,97483.50
2018-06-10T07:50:53.066Z,97482.30
2018-06-10T07:53:22.315Z,97485.94
2018-06-10T07:55:51.666Z,97482.81
2018-06-10T07:58:20.913Z,97481.53
2018-06-10T08:00:50.120Z,97479.78
2018-06-10T08:03:19.370Z,97485.87
2018-06-10T08:05:48.542Z,97482.80
2018-06-10T08:08:17.783Z,97484.50
2018-06-10T08:10:46.979Z,97482.34
2018-06-10T08:13:16.273Z,97472.54
2018-06-10T08:15:45.531Z,97471.03
2018-06-10T08:18:14.854Z,97463.67
2018-06-10T08:20:44.137Z,97466.75
2018-06-10T08:23:13.417Z,97459.75
2018-06-10T08:25:42.734Z,97463.23
2018-06-10T08:28:12.671Z,97466.01
2018-06-10T08:30:41.993Z,97469.59
2018-06-10T08:33:11.295Z,97467.80
2018-06-10T08:35:40.549Z,97475.03
2018-06-10T08:38:09.810Z,97471.03
2018-06-10T08:40:39.035Z,97470.52
2018-06-10T08:43:08.283Z,97469.45
2018-06-10T08:45:37.500Z,97468.45
2018-06-10T08:48:06.749Z,97467.55
2018-06-10T08:50:35.999Z,97471.85
2018-06-10T08:53:05.335Z,97464.64
2018-06-10T08:55:34.584Z,97474.08
2018-06-10T08:58:04.284Z,97478.33
2018-06-10T09:00:33.526Z,97469.91
2018-06-10T09:03:02.756Z,97475.05
2018-06-10T09:05:32.059Z,97470.27
2018-06-10T09:08:01.278Z,97470.75
2018-06-10T09:10:30.529Z,97472.36
2018-06-10T09:12:59.887Z,97472.78
2018-06-10T09:15:28.934Z,97467.29
2018-06-10T09:17:58.224Z,97464.25
2018-06-10T09:20:27.500Z,97469.67
2018-06-10T09:22:57.731Z,97463.38
2018-06-10T09:25:26.786Z,97463.17
2018-06-10T09:27:56.085Z,97461.97
2018-06-10T09:30:25.400Z,97451.27
2018-06-10T09:32:54.634Z,97449.25
2018-06-10T09:35:23.908Z,97459.71
2018-06-10T09:37:53.127Z,97462.78
2018-06-10T09:40:22.387Z,97461.55
2018-06-10T09:42:51.644Z,97457.83
2018-06-10T09:45:20.899Z,97451.25
2018-06-10T09:47:50.133Z,97453.77
2018-06-10T09:50:19.370Z,97451.52
2018-06-10T09:52:48.614Z,97461.14
2018-06-10T09:55:17.899Z,97454.70
2018-06-10T09:57:47.101Z,97455.03
2018-06-10T10:00:21.639Z,97451.50
2018-06-10T10:02:57.423Z,97453.44
2018-06-10T10:05:26.750Z,97451.72
2018-06-10T10:07:56.049Z,97447.31
2018-06-10T10:10:25.487Z,97451.95
2018-06-10T10:12:54.704Z,97450.02
2018-06-10T10:15:23.962Z,97444.48
2018-06-10T10:17:53.223Z,97446.36
2018-06-10T10:20:22.463Z,97441.57
2018-06-10T10:22:51.686Z,97433.41
2018-06-10T10:25:20.914Z,97439.77
2018-06-10T10:27:50.323Z,97430.06
2018-06-10T10:30:19.574Z,97435.62
2018-06-10T10:32:48.766Z,97431.06
2018-06-10T10:35:18.042Z,97426.03
2018-06-10T10:37:47.279Z,97416.91
2018-06-10T10:40:16.522Z,97425.50
2018-06-10T10:42:45.760Z,97421.48
2018-06-10T10:45:15.055Z,97412.13
2018-06-10T10:47:44.375Z,97418.89
2018-06-10T10:50:13.646Z,97408.66
2018-06-10T10:52:42.899Z,97418.33
2018-06-10T10:55:12.155Z,97422.12
2018-06-10T10:57:41.502Z,97412.56
2018-06-10T11:00:10.781Z,97410.94
2018-06-10T11:02:40.011Z,97410.13
2018-06-10T11:05:09.204Z,97415.39
2018-06-10T11:07:38.465Z,97408.95
2018-06-10T11:10:07.663Z,97402.05
2018-06-10T11:12:36.935Z,97407.51
2018-06-10T11:15:06.152Z,97400.05
2018-06-10T11:17:35.350Z,97405.39
2018-06-10T11:20:04.554Z,97405.07
2018-06-10T11:22:33.775Z,97405.70
2018-06-10T11:25:03.014Z,97401.94
2018-06-10T11:27:32.253Z,97399.53
2018-06-10T11:30:01.531Z,97400.56
2018-06-10T11:32:30.754Z,97404.25
2018-06-10T11:35:00.008Z,97406.03
2018-06-10T11:37:29.359Z,97400.16
2018-06-10T11:39:58.619Z,97395.19
2018-06-10T11:42:27.961Z,97406.34
2018-06-10T11:44:57.270Z,97397.48
2018-06-10T11:47:26.502Z,97397.09
2018-06-10T11:49:55.771Z,97394.00
2018-06-10T11:52:25.000Z,97395.63
2018-06-10T11:54:54.436Z,97389.06
2018-06-10T11:57:23.679Z,97384.77
2018-06-10T11:59:53.044Z,97379.18
2018-06-10T12:02:22.869Z,97385.91
2018-06-10T12:04:52.434Z,97376.34
2018-06-10T12:07:21.749Z,97385.80
2018-06-10T12:09:51.068Z,97385.26
2018-06-10T12:12:20.422Z,97370.82
2018-06-10T12:14:50.033Z,97375.98
2018-06-10T12:17:19.385Z,97367.48
2018-06-10T12:19:48.626Z,97370.92
2018-06-10T12:22:17.920Z,97363.36
2018-06-10T12:24:47.305Z,97365.57
2018-06-10T12:27:16.668Z,97363.58
2018-06-10T12:29:46.215Z,97365.45
2018-06-10T12:32:15.358Z,97371.52
2018-06-10T12:34:44.762Z,97371.66
2018-06-10T12:37:14.292Z,97379.64
2018-06-10T12:39:43.732Z,97373.44
2018-06-10T12:42:13.247Z,97375.53
2018-06-10T12:44:42.740Z,97371.48
2018-06-10T12:47:12.304Z,97375.47
2018-06-10T12:49:42.664Z,97368.66
2018-06-10T12:52:12.117Z,97374.29
2018-06-10T12:54:41.430Z,97380.27
2018-06-10T12:57:10.747Z,97376.09
2018-06-10T12:59:39.982Z,97371.30
2018-06-10T13:02:09.235Z,97371.80
2018-06-10T13:04:38.507Z,97369.89
2018-06-10T13:07:07.800Z,97364.87
2018-06-10T13:09:37.104Z,97360.66
2018-06-10T13:12:06.394Z,97356.80
2018-06-10T13:14:35.717Z,97361.18
2018-06-10T13:17:04.693Z,97364.91
2018-06-10T13:19:34.060Z,97364.64
2018-06-10T13:22:03.324Z,97360.83
2018-06-10T13:24:32.423Z,97358.84
2018-06-10T13:27:01.752Z,97355.66
2018-06-10T13:29:31.468Z,97356.63
2018-06-10T13:32:00.610Z,97355.83
2018-06-10T13:34:29.911Z,97355.05
2018-06-10T13:36:59.154Z,97358.48
2018-06-10T13:39:28.380Z,97353.89
2018-06-10T13:41:57.767Z,97342.00
2018-06-10T13:44:27.014Z,97341.30
2018-06-10T13:46:56.288Z,97356.44
2018-06-10T13:49:25.534Z,97353.58
2018-06-10T13:51:54.833Z,97356.80
2018-06-10T13:54:24.147Z,97357.55
2018-06-10T13:56:53.437Z,97351.66
2018-06-10T13:59:22.736Z,97349.30
2018-06-10T14:01:51.973Z,97356.65
2018-06-10T14:04:21.215Z,97355.06
2018-06-10T14:06:50.645Z,97363.26
2018-06-10T14:09:19.891Z,97362.39
2018-06-10T14:11:49.182Z,97366.84
2018-06-10T14:14:18.230Z,97361.53
2018-06-10T14:16:47.467Z,97356.57
2018-06-10T14:19:16.795Z,97362.63
2018-06-10T14:21:48.332Z,97353.31
2018-06-10T14:24:17.610Z,97366.38
2018-06-10T14:26:46.891Z,97365.33
2018-06-10T14:29:16.132Z,97362.63
2018-06-10T14:31:45.213Z,97365.19
2018-06-10T14:34:14.501Z,97366.44
2018-06-10T14:36:43.797Z,97367.58
2018-06-10T14:39:13.134Z,97364.28
2018-06-10T14:41:42.671Z,97357.56
2018-06-10T14:44:12.020Z,97346.48
2018-06-10T14:46:41.467Z,97346.09
2018-06-10T14:49:11.010Z,97340.75
2018-06-10T14:51:40.320Z,97326.47
2018-06-10T14:54:10.508Z,97322.76
2018-06-10T14:56:39.743Z,97318.72
2018-06-10T14:59:09.003Z,97308.54
2018-06-10T15:01:38.221Z,97306.25
2018-06-10T15:04:07.423Z,97310.25
2018-06-10T15:06:36.697Z,97305.81
2018-06-10T15:09:08.677Z,97305.83
2018-06-10T15:11:37.935Z,97303.37
2018-06-10T15:14:06.918Z,97299.98
2018-06-10T15:16:36.206Z,97306.92
2018-06-10T15:19:05.465Z,97307.82
2018-06-10T15:21:34.497Z,97303.55
2018-06-10T15:24:03.780Z,97301.33
2018-06-10T15:26:33.035Z,97302.56
2018-06-10T15:29:02.300Z,97292.66
2018-06-10T15:31:31.555Z,97284.77
2018-06-10T15:34:00.855Z,97275.36
2018-06-10T15:36:30.127Z,97276.19
2018-06-10T15:38:59.407Z,97279.70
2018-06-10T15:41:28.728Z,97280.13
2018-06-10T15:43:58.018Z,97285.61
2018-06-10T15:46:27.349Z,97287.90
2018-06-10T15:48:56.617Z,97289.06
2018-06-10T15:51:25.654Z,97286.66
2018-06-10T15:53:54.917Z,97292.93
2018-06-10T15:56:24.239Z,97306.55
2018-06-10T15:58:53.471Z,97308.28
2018-06-10T16:01:22.498Z,97302.77
2018-06-10T16:03:51.722Z,97295.87
2018-06-10T16:06:20.958Z,97293.68
2018-06-10T16:08:50.161Z,97295.59
2018-06-10T16:11:19.427Z,97293.88
2018-06-10T16:13:48.663Z,97295.37
2018-06-10T16:16:17.877Z,97286.06
2018-06-10T16:18:47.098Z,97286.50
2018-06-10T16:21:16.383Z,97285.42
2018-06-10T16:23:45.643Z,97289.30
2018-06-10T16:26:14.902Z,97288.26
2018-06-10T16:28:45.232Z,97292.50
2018-06-10T16:31:14.490Z,97295.98
2018-06-10T16:33:43.778Z,97302.05
2018-06-10T16:36:13.107Z,97297.48
2018-06-10T16:38:42.508Z,97308.19
2018-06-10T16:41:11.840Z,97301.35
2018-06-10T16:43:41.202Z,97310.48
2018-06-10T16:46:10.210Z,97311.02
2018-06-10T16:48:39.450Z,97312.25
2018-06-10T16:51:08.717Z,97302.50
2018-06-10T16:53:37.952Z,97300.58
2018-06-10T16:56:07.171Z,97296.53
2018-06-10T16:58:36.396Z,97300.16
2018-06-10T17:01:05.673Z,97288.80
2018-06-10T17:03:34.947Z,97288.55
2018-06-10T17:06:04.238Z,97288.73
2018-06-10T17:08:33.471Z,97284.20
2018-06-10T17:11:02.696Z,97281.59
2018-06-10T17:13:31.977Z,97280.06
2018-06-10T17:16:01.191Z,97272.87
2018-06-10T17:18:30.382Z,97265.02
2018-06-10T17:20:59.662Z,97270.55
2018-06-10T17:23:29.076Z,97276.45
2018-06-10T17:25:59.403Z,97280.89
2018-06-10T17:28:28.665Z,97280.92
2018-06-10T17:30:57.886Z,97277.27
2018-06-10T17:33:27.178Z,97280.09
2018-06-10T17:35:56.631Z,97283.09
2018-06-10T17:38:25.975Z,97275.75
2018-06-10T17:40:55.322Z,97272.99
2018-06-10T17:43:24.628Z,97273.30
2018-06-10T17:45:53.972Z,97267.52
2018-06-10T17:48:23.384Z,97266.27
2018-06-10T17:53:14.272Z,97273.26
2018-06-10T17:55:43.605Z,97269.41
2018-06-10T17:58:13.032Z,97268.72
2018-06-10T18:00:42.466Z,97264.20
2018-06-10T18:03:11.876Z,97257.20
2018-06-10T18:05:41.309Z,97255.55
2018-06-10T18:08:10.751Z,97253.98
2018-06-10T18:10:40.177Z,97254.97
2018-06-10T18:13:09.668Z,97257.41
2018-06-10T18:15:39.223Z,97253.80
2018-06-10T18:18:08.791Z,97265.93
2018-06-10T18:20:38.338Z,97257.84
2018-06-10T18:23:07.683Z,97258.48
2018-06-10T18:25:37.211Z,97257.75
2018-06-10T18:28:06.682Z,97259.34
2018-06-10T18:30:36.210Z,97259.06
2018-06-10T18:33:05.701Z,97268.36
2018-06-10T18:35:35.198Z,97276.30
2018-06-10T18:38:04.813Z,97271.56
2018-06-10T18:40:34.413Z,97275.34
2018-06-10T18:43:03.895Z,97281.34
2018-06-10T18:45:33.424Z,97280.22
2018-06-10T18:48:02.947Z,97283.62
2018-06-10T18:50:32.495Z,97275.97
2018-06-10T18:53:02.021Z,97279.72
2018-06-10T18:55:31.455Z,97280.05
2018-06-10T18:58:00.918Z,97290.34
2018-06-10T19:00:30.433Z,97296.70
2018-06-10T19:02:59.996Z,97293.03
2018-06-10T19:05:35.810Z,97282.41
2018-06-10T19:08:05.385Z,97283.53
2018-06-10T19:10:34.878Z,97283.54
2018-06-10T19:13:04.586Z,97284.98
2018-06-10T19:15:34.096Z,97282.82
2018-06-10T19:18:03.531Z,97281.80
2018-06-10T19:20:32.985Z,97282.16
2018-06-10T19:23:02.446Z,97277.82
2018-06-10T19:25:32.031Z,97285.16
2018-06-10T19:28:01.425Z,97291.62
2018-06-10T19:30:30.935Z,97299.64
2018-06-10T19:33:00.248Z,97302.17
2018-06-10T19:35:29.645Z,97311.42
2018-06-10T19:37:58.885Z,97315.70
2018-06-10T19:40:28.202Z,97322.95
2018-06-10T19:42:57.499Z,97324.63
2018-06-10T19:45:26.796Z,97330.98
2018-06-10T19:47:56.139Z,97337.34
2018-06-10T19:50:25.547Z,97342.75
2018-06-10T19:52:54.944Z,97345.97
2018-06-10T19:55:24.306Z,97349.45
2018-06-10T19:57:53.442Z,97352.06
2018-06-10T20:00:22.684Z,97358.83
2018-06-10T20:02:52.044Z,97359.26
2018-06-10T20:05:21.275Z,97359.80
2018-06-10T20:07:50.571Z,97362.97
2018-06-10T20:10:19.715Z,97371.07
2018-06-10T20:12:49.057Z,97369.77
2018-06-10T20:15:18.370Z,97373.03
2018-06-10T20:17:47.603Z,97376.99
2018-06-10T20:20:16.812Z,97372.97
2018-06-10T20:22:46.079Z,97375.95
2018-06-10T20:25:15.388Z,97372.86
2018-06-10T20:27:44.689Z,97371.09
2018-06-10T20:30:14.003Z,97372.65
2018-06-10T20:32:43.491Z,97373.06
2018-06-10T20:35:12.828Z,97377.53
2018-06-10T20:37:42.130Z,97380.41
2018-06-10T20:40:11.742Z,97374.43
2018-06-10T20:42:40.813Z,97377.89
2018-06-10T20:45:10.107Z,97375.20
2018-06-10T20:47:41.995Z,97376.06
2018-06-10T20:50:11.674Z,97380.77
2018-06-10T20:52:40.992Z,97380.87
2018-06-10T20:55:10.339Z,97378.63
2018-06-10T20:57:39.619Z,97386.28
2018-06-10T21:00:08.616Z,97381.68
2018-06-10T21:02:38.090Z,97387.25
2018-06-10T21:05:07.373Z,97392.16
2018-06-10T21:07:36.583Z,97393.84
2018-06-10T21:10:05.827Z,97387.52
2018-06-10T21:12:35.439Z,97379.39
2018-06-10T21:15:04.948Z,97386.15
2018-06-10T21:17:34.150Z,97390.69
2018-06-10T21:20:03.415Z,97398.99
2018-06-10T21:22:32.615Z,97403.44
2018-06-10T21:25:02.065Z,97403.66
2018-06-10T21:27:31.327Z,97403.84
2018-06-10T21:30:00.587Z,97411.42
2018-06-10T21:32:29.857Z,97414.69
2018-06-10T21:34:59.523Z,97420.09
2018-06-10T21:37:28.751Z,97419.45
2018-06-10T21:39:58.172Z,97422.00
2018-06-10T21:42:27.492Z,97433.62
2018-06-10T21:44:56.771Z,97445.29
2018-06-10T21:47:26.053Z,97451.34
2018-06-10T21:49:55.222Z,97447.04
2018-06-10T21:52:24.464Z,97442.03
2018-06-10T21:54:55.216Z,97442.98
2018-06-10T21:57:24.423Z,97439.57
2018-06-10T21:59:53.671Z,97434.01
2018-06-10T22:02:22.883Z,97442.42
2018-06-10T22:04:51.877Z,97443.95
2018-06-10T22:07:21.080Z,97441.00
2018-06-10T22:09:50.393Z,97438.45
2018-06-10T22:12:19.667Z,97435.75
2018-06-10T22:14:48.916Z,97438.77
2018-06-10T22:17:19.164Z,97442.35
2018-06-10T22:19:48.414Z,97435.05
2018-06-10T22:22:17.613Z,97432.39
2018-06-10T22:24:46.833Z,97430.38
2018-06-10T22:27:16.165Z,97429.56
2018-06-10T22:29:45.544Z,97425.91
2018-06-10T22:32:15.442Z,97421.98
2018-06-10T22:34:44.805Z,97423.98
2018-06-10T22:37:14.100Z,97426.20
2018-06-10T22:39:43.457Z,97431.03
2018-06-10T22:42:12.747Z,97426.02
2018-06-10T22:44:43.198Z,97428.00
2018-06-10T22:47:13.512Z,97428.61
2018-06-10T22:49:42.803Z,97417.65
2018-06-10T22:52:12.214Z,97407.42
2018-06-10T22:54:43.813Z,97407.48
2018-06-10T22:57:13.170Z,97407.03
2018-06-10T22:59:42.507Z,97402.84
2018-06-10T23:02:12.359Z,97403.59
2018-06-10T23:04:41.671Z,97418.47
2018-06-10T23:07:11.008Z,97418.05
2018-06-10T23:09:40.266Z,97414.47
2018-06-10T23:12:09.592Z,97409.62
2018-06-10T23:14:38.903Z,97416.20
2018-06-10T23:17:08.367Z,97420.92
2018-06-10T23:19:37.578Z,97415.45
2018-06-10T23:22:06.815Z,97413.47
2018-06-10T23:24:37.157Z,97416.37
2018-06-10T23:27:06.407Z,97423.44
2018-06-10T23:29:36.500Z,97421.23
2018-06-10T23:32:05.710Z,97420.55
2018-06-10T23:34:35.665Z,97410.47
2018-06-10T23:37:04.667Z,97409.92
2018-06-10T23:39:33.895Z,97414.02
2018-06-10T23:42:03.148Z,97416.42
2018-06-10T23:44:32.370Z,97407.10
2018-06-10T23:47:01.748Z,97398.64
2018-06-10T23:49:30.985Z,97400.66
2018-06-10T23:52:00.239Z,97405.07
2018-06-10T23:54:29.587Z,97402.45
2018-06-10T23:56:59.455Z,97393.67
2018-06-10T23:59:28.772Z,97392.01
